sensor_id;sensor_type;location;lat;lon;timestamp;pressure;altitude;pressure_sealevel;temperature;humidity
80693;BME280;70055;39.436;-77.514;2023-06-10T00:01:51;98822.83;;;14.63;57.82
80693;BME280;70055;39.436;-77.514;2023-06-10T00:04:20;98823.32;;;14.73;57.72
80693;BME280;70055;39.436;-77.514;2023-06-10T00:06:48;98828.56;;;14.90;57.23
80693;BME280;70055;39.436;-77.514;2023-06-10T00:09:16;98829.36;;;15.10;56.93
80693;BME280;70055;39.436;-77.514;2023-06-10T00:11:45;98829.73;;;13.80;59.61
80693;BME280;70055;39.436;-77.514;2023-06-10T00:14:13;98834.60;;;13.98;59.81
80693;BME280;70055;39.436;-77.514;2023-06-10T00:16:42;98841.77;;;13.02;62.21
80693;BME280;70055;39.436;-77.514;2023-06-10T00:19:10;98838.73;;;13.71;61.66
80693;BME280;70055;39.436;-77.514;2023-06-10T00:21:38;98829.39;;;13.96;60.83
80693;BME280;70055;39.436;-77.514;2023-06-10T00:24:08;98822.39;;;14.38;60.49
80693;BME280;70055;39.436;-77.514;2023-06-10T00:26:37;98825.19;;;15.03;58.69
80693;BME280;70055;39.436;-77.514;2023-06-10T00:29:05;98828.64;;;14.98;58.11
80693;BME280;70055;39.436;-77.514;2023-06-10T00:31:35;98833.33;;;14.77;57.18
80693;BME280;70055;39.436;-77.514;2023-06-10T00:34:03;98836.94;;;14.95;57.97
80693;BME280;70055;39.436;-77.514;2023-06-10T00:36:31;98836.37;;;15.26;57.00
80693;BME280;70055;39.436;-77.514;2023-06-10T00:39:01;98836.37;;;15.59;56.75
80693;BME280;70055;39.436;-77.514;2023-06-10T00:41:29;98836.41;;;15.58;56.63
80693;BME280;70055;39.436;-77.514;2023-06-10T00:43:57;98841.33;;;15.19;57.97
80693;BME280;70055;39.436;-77.514;2023-06-10T00:46:25;98843.09;;;15.09;57.46
80693;BME280;70055;39.436;-77.514;2023-06-10T00:48:55;98842.46;;;15.37;57.30
80693;BME280;70055;39.436;-77.514;2023-06-10T00:51:24;98850.08;;;14.85;58.20
80693;BME280;70055;39.436;-77.514;2023-06-10T00:53:53;98852.73;;;13.87;59.89
80693;BME280;70055;39.436;-77.514;2023-06-10T00:56:22;98848.10;;;14.95;57.50
80693;BME280;70055;39.436;-77.514;2023-06-10T00:58:51;98846.62;;;15.24;56.70
80693;BME280;70055;39.436;-77.514;2023-06-10T01:01:21;98848.17;;;15.44;56.25
80693;BME280;70055;39.436;-77.514;2023-06-10T01:03:50;98848.00;;;15.69;54.79
80693;BME280;70055;39.436;-77.514;2023-06-10T01:06:24;98854.07;;;15.68;54.65
80693;BME280;70055;39.436;-77.514;2023-06-10T01:09:00;98857.49;;;15.26;53.95
80693;BME280;70055;39.436;-77.514;2023-06-10T01:11:43;98855.67;;;15.56;53.24
80693;BME280;70055;39.436;-77.514;2023-06-10T01:14:12;98856.77;;;15.30;53.35
80693;BME280;70055;39.436;-77.514;2023-06-10T01:16:40;98864.17;;;15.08;53.57
80693;BME280;70055;39.436;-77.514;2023-06-10T01:19:09;98868.32;;;14.64;54.88
80693;BME280;70055;39.436;-77.514;2023-06-10T01:21:39;98871.74;;;14.83;53.96
80693;BME280;70055;39.436;-77.514;2023-06-10T01:24:07;98873.39;;;15.53;52.36
80693;BME280;70055;39.436;-77.514;2023-06-10T01:26:36;98881.59;;;14.55;53.87
80693;BME280;70055;39.436;-77.514;2023-06-10T01:29:10;98884.56;;;14.68;53.99
80693;BME280;70055;39.436;-77.514;2023-06-10T01:31:45;98887.56;;;14.26;53.78
80693;BME280;70055;39.436;-77.514;2023-06-10T01:34:19;98892.68;;;13.98;54.52
80693;BME280;70055;39.436;-77.514;2023-06-10T01:36:50;98898.44;;;12.59;58.74
80693;BME280;70055;39.436;-77.514;2023-06-10T01:39:24;98901.91;;;13.73;56.44
80693;BME280;70055;39.436;-77.514;2023-06-10T01:41:53;98905.69;;;13.41;57.25
80693;BME280;70055;39.436;-77.514;2023-06-10T01:44:23;98909.19;;;12.86;58.84
80693;BME280;70055;39.436;-77.514;2023-06-10T01:46:52;98910.15;;;13.28;57.66
80693;BME280;70055;39.436;-77.514;2023-06-10T01:49:19;98912.83;;;13.91;55.63
80693;BME280;70055;39.436;-77.514;2023-06-10T01:51:47;98915.51;;;13.84;55.02
80693;BME280;70055;39.436;-77.514;2023-06-10T01:54:15;98922.92;;;13.70;55.02
80693;BME280;70055;39.436;-77.514;2023-06-10T01:56:44;98919.51;;;13.79;54.47
80693;BME280;70055;39.436;-77.514;2023-06-10T01:59:13;98920.37;;;13.50;54.88
80693;BME280;70055;39.436;-77.514;2023-06-10T02:01:42;98925.95;;;13.44;55.32
80693;BME280;70055;39.436;-77.514;2023-06-10T02:04:10;98923.72;;;13.06;55.83
80693;BME280;70055;39.436;-77.514;2023-06-10T02:06:38;98926.11;;;13.32;55.34
80693;BME280;70055;39.436;-77.514;2023-06-10T02:09:07;98926.91;;;13.35;55.73
80693;BME280;70055;39.436;-77.514;2023-06-10T02:11:36;98923.08;;;13.08;56.54
80693;BME280;70055;39.436;-77.514;2023-06-10T02:14:04;98920.74;;;12.98;56.58
80693;BME280;70055;39.436;-77.514;2023-06-10T02:16:32;98918.55;;;12.72;56.97
80693;BME280;70055;39.436;-77.514;2023-06-10T02:19:00;98921.24;;;13.44;54.66
80693;BME280;70055;39.436;-77.514;2023-06-10T02:21:29;98921.50;;;13.08;55.65
80693;BME280;70055;39.436;-77.514;2023-06-10T02:23:58;98923.70;;;12.62;56.51
80693;BME280;70055;39.436;-77.514;2023-06-10T02:26:27;98927.85;;;12.72;56.01
80693;BME280;70055;39.436;-77.514;2023-06-10T02:28:56;98930.96;;;11.17;57.58
80693;BME280;70055;39.436;-77.514;2023-06-10T02:31:25;98932.94;;;11.09;59.58
80693;BME280;70055;39.436;-77.514;2023-06-10T02:33:53;98938.44;;;10.22;60.84
80693;BME280;70055;39.436;-77.514;2023-06-10T02:36:22;98937.34;;;11.30;58.34
80693;BME280;70055;39.436;-77.514;2023-06-10T02:38:51;98937.83;;;10.72;60.80
80693;BME280;70055;39.436;-77.514;2023-06-10T02:41:20;98937.00;;;10.70;60.45
80693;BME280;70055;39.436;-77.514;2023-06-10T02:43:50;98930.49;;;10.66;60.29
80693;BME280;70055;39.436;-77.514;2023-06-10T02:46:18;98938.35;;;11.11;59.99
80693;BME280;70055;39.436;-77.514;2023-06-10T02:48:47;98939.93;;;12.58;57.12
80693;BME280;70055;39.436;-77.514;2023-06-10T02:51:14;98937.10;;;12.23;56.89
80693;BME280;70055;39.436;-77.514;2023-06-10T02:53:43;98934.07;;;11.46;58.40
80693;BME280;70055;39.436;-77.514;2023-06-10T02:56:11;98931.77;;;11.41;57.99
80693;BME280;70055;39.436;-77.514;2023-06-10T02:58:40;98929.62;;;11.88;56.96
80693;BME280;70055;39.436;-77.514;2023-06-10T03:01:09;98928.33;;;12.12;56.05
80693;BME280;70055;39.436;-77.514;2023-06-10T03:03:38;98928.30;;;12.56;56.70
80693;BME280;70055;39.436;-77.514;2023-06-10T03:06:06;98926.24;;;11.73;58.64
80693;BME280;70055;39.436;-77.514;2023-06-10T03:08:34;98921.02;;;11.94;58.44
80693;BME280;70055;39.436;-77.514;2023-06-10T03:11:03;98916.99;;;10.55;59.38
80693;BME280;70055;39.436;-77.514;2023-06-10T03:13:31;98913.35;;;11.19;58.82
80693;BME280;70055;39.436;-77.514;2023-06-10T03:16:00;98906.68;;;11.99;58.56
80693;BME280;70055;39.436;-77.514;2023-06-10T03:18:29;98902.95;;;11.66;56.19
80693;BME280;70055;39.436;-77.514;2023-06-10T03:20:57;98903.29;;;11.59;57.90
80693;BME280;70055;39.436;-77.514;2023-06-10T03:23:26;98904.28;;;11.89;56.48
80693;BME280;70055;39.436;-77.514;2023-06-10T03:25:54;98904.12;;;11.50;57.32
80693;BME280;70055;39.436;-77.514;2023-06-10T03:28:22;98903.12;;;11.03;58.20
80693;BME280;70055;39.436;-77.514;2023-06-10T03:30:50;98902.69;;;11.65;56.07
80693;BME280;70055;39.436;-77.514;2023-06-10T03:33:19;98907.99;;;12.00;56.02
80693;BME280;70055;39.436;-77.514;2023-06-10T03:35:48;98914.05;;;12.16;56.00
80693;BME280;70055;39.436;-77.514;2023-06-10T03:38:17;98919.17;;;11.74;56.79
80693;BME280;70055;39.436;-77.514;2023-06-10T03:40:45;98922.18;;;11.81;56.01
80693;BME280;70055;39.436;-77.514;2023-06-10T03:43:13;98922.26;;;11.83;56.95
80693;BME280;70055;39.436;-77.514;2023-06-10T03:45:41;98921.38;;;11.75;56.66
80693;BME280;70055;39.436;-77.514;2023-06-10T03:48:09;98918.80;;;10.64;59.41
80693;BME280;70055;39.436;-77.514;2023-06-10T03:50:37;98912.51;;;11.26;57.65
80693;BME280;70055;39.436;-77.514;2023-06-10T03:53:06;98908.35;;;11.47;57.25
80693;BME280;70055;39.436;-77.514;2023-06-10T03:55:35;98912.14;;;11.60;57.23
80693;BME280;70055;39.436;-77.514;2023-06-10T03:58:03;98914.69;;;11.92;57.00
80693;BME280;70055;39.436;-77.514;2023-06-10T04:00:31;98914.81;;;11.24;57.71
80693;BME280;70055;39.436;-77.514;2023-06-10T04:02:59;98912.42;;;11.49;57.01
80693;BME280;70055;39.436;-77.514;2023-06-10T04:05:27;98909.84;;;11.72;56.04
80693;BME280;70055;39.436;-77.514;2023-06-10T04:07:55;98906.62;;;11.16;57.98
80693;BME280;70055;39.436;-77.514;2023-06-10T04:10:23;98905.35;;;11.40;57.97
80693;BME280;70055;39.436;-77.514;2023-06-10T04:12:51;98910.24;;;11.91;56.09
80693;BME280;70055;39.436;-77.514;2023-06-10T04:15:20;98913.51;;;11.70;56.69
80693;BME280;70055;39.436;-77.514;2023-06-10T04:17:49;98911.00;;;11.73;56.53
80693;BME280;70055;39.436;-77.514;2023-06-10T04:20:18;98912.36;;;11.07;56.40
80693;BME280;70055;39.436;-77.514;2023-06-10T04:22:46;98924.68;;;9.34;60.92
80693;BME280;70055;39.436;-77.514;2023-06-10T04:25:14;98922.99;;;9.65;61.06
80693;BME280;70055;39.436;-77.514;2023-06-10T04:27:43;98912.28;;;10.87;59.45
80693;BME280;70055;39.436;-77.514;2023-06-10T04:30:13;98906.77;;;10.32;60.44
80693;BME280;70055;39.436;-77.514;2023-06-10T04:32:41;98902.53;;;11.03;58.39
80693;BME280;70055;39.436;-77.514;2023-06-10T04:35:12;98903.83;;;11.12;57.67
80693;BME280;70055;39.436;-77.514;2023-06-10T04:37:40;98902.18;;;10.77;58.08
80693;BME280;70055;39.436;-77.514;2023-06-10T04:40:09;98905.65;;;11.07;58.29
80693;BME280;70055;39.436;-77.514;2023-06-10T04:42:37;98904.95;;;11.44;57.22
80693;BME280;70055;39.436;-77.514;2023-06-10T04:45:06;98906.69;;;11.13;57.54
80693;BME280;70055;39.436;-77.514;2023-06-10T04:47:34;98900.81;;;11.10;57.52
80693;BME280;70055;39.436;-77.514;2023-06-10T04:50:03;98900.67;;;11.25;57.11
80693;BME280;70055;39.436;-77.514;2023-06-10T04:52:31;98899.20;;;10.54;59.55
80693;BME280;70055;39.436;-77.514;2023-06-10T04:54:59;98894.71;;;11.34;57.45
80693;BME280;70055;39.436;-77.514;2023-06-10T04:57:28;98892.90;;;11.02;57.59
80693;BME280;70055;39.436;-77.514;2023-06-10T04:59:56;98892.45;;;10.62;59.54
80693;BME280;70055;39.436;-77.514;2023-06-10T05:02:24;98894.81;;;10.57;59.18
80693;BME280;70055;39.436;-77.514;2023-06-10T05:04:52;98892.81;;;10.79;58.28
80693;BME280;70055;39.436;-77.514;2023-06-10T05:07:19;98887.42;;;11.03;56.56
80693;BME280;70055;39.436;-77.514;2023-06-10T05:09:47;98885.04;;;10.65;56.80
80693;BME280;70055;39.436;-77.514;2023-06-10T05:12:15;98884.67;;;10.01;59.68
80693;BME280;70055;39.436;-77.514;2023-06-10T05:14:43;98879.35;;;10.72;57.24
80693;BME280;70055;39.436;-77.514;2023-06-10T05:17:12;98878.06;;;10.41;58.06
80693;BME280;70055;39.436;-77.514;2023-06-10T05:19:40;98869.79;;;11.51;56.85
80693;BME280;70055;39.436;-77.514;2023-06-10T05:22:09;98872.44;;;11.22;57.74
80693;BME280;70055;39.436;-77.514;2023-06-10T05:24:37;98879.10;;;9.98;60.89
80693;BME280;70055;39.436;-77.514;2023-06-10T05:27:05;98878.92;;;10.74;57.59
80693;BME280;70055;39.436;-77.514;2023-06-10T05:29:33;98875.78;;;10.50;57.50
80693;BME280;70055;39.436;-77.514;2023-06-10T05:32:01;98873.09;;;10.77;57.58
80693;BME280;70055;39.436;-77.514;2023-06-10T05:34:30;98873.09;;;10.34;59.21
80693;BME280;70055;39.436;-77.514;2023-06-10T05:36:59;98870.66;;;10.58;58.28
80693;BME280;70055;39.436;-77.514;2023-06-10T05:39:27;98869.24;;;10.67;57.69
80693;BME280;70055;39.436;-77.514;2023-06-10T05:41:55;98871.68;;;10.68;58.30
80693;BME280;70055;39.436;-77.514;2023-06-10T05:44:23;98876.87;;;10.28;58.81
80693;BME280;70055;39.436;-77.514;2023-06-10T05:46:51;98871.26;;;10.62;57.43
80693;BME280;70055;39.436;-77.514;2023-06-10T05:49:19;98871.25;;;10.08;58.94
80693;BME280;70055;39.436;-77.514;2023-06-10T05:51:46;98868.72;;;10.32;58.57
80693;BME280;70055;39.436;-77.514;2023-06-10T05:54:14;98864.50;;;10.61;57.07
80693;BME280;70055;39.436;-77.514;2023-06-10T05:56:43;98862.59;;;10.41;57.83
80693;BME280;70055;39.436;-77.514;2023-06-10T05:59:11;98864.10;;;9.91;61.40
80693;BME280;70055;39.436;-77.514;2023-06-10T06:01:39;98866.92;;;10.00;60.51
80693;BME280;70055;39.436;-77.514;2023-06-10T06:04:08;98869.32;;;10.70;59.56
80693;BME280;70055;39.436;-77.514;2023-06-10T06:06:38;98864.19;;;10.61;57.55
80693;BME280;70055;39.436;-77.514;2023-06-10T06:09:06;98862.21;;;10.83;57.84
80693;BME280;70055;39.436;-77.514;2023-06-10T06:11:34;98860.79;;;10.24;58.80
80693;BME280;70055;39.436;-77.514;2023-06-10T06:14:03;98854.88;;;10.17;58.88
80693;BME280;70055;39.436;-77.514;2023-06-10T06:16:31;98849.76;;;9.98;61.09
80693;BME280;70055;39.436;-77.514;2023-06-10T06:18:58;98851.32;;;10.47;59.93
80693;BME280;70055;39.436;-77.514;2023-06-10T06:21:27;98849.34;;;10.74;56.95
80693;BME280;70055;39.436;-77.514;2023-06-10T06:23:54;98852.61;;;9.59;61.73
80693;BME280;70055;39.436;-77.514;2023-06-10T06:26:22;98847.61;;;9.97;59.11
80693;BME280;70055;39.436;-77.514;2023-06-10T06:28:51;98850.41;;;10.33;57.50
80693;BME280;70055;39.436;-77.514;2023-06-10T06:31:19;98853.36;;;10.63;57.39
80693;BME280;70055;39.436;-77.514;2023-06-10T06:33:47;98851.77;;;10.89;57.46
80693;BME280;70055;39.436;-77.514;2023-06-10T06:36:15;98851.23;;;10.40;58.60
80693;BME280;70055;39.436;-77.514;2023-06-10T06:38:43;98857.26;;;9.72;61.53
80693;BME280;70055;39.436;-77.514;2023-06-10T06:41:11;98852.63;;;10.31;58.66
80693;BME280;70055;39.436;-77.514;2023-06-10T06:43:39;98858.56;;;10.68;58.88
80693;BME280;70055;39.436;-77.514;2023-06-10T06:46:06;98859.22;;;10.47;59.38
80693;BME280;70055;39.436;-77.514;2023-06-10T06:48:34;98854.36;;;10.54;58.62
80693;BME280;70055;39.436;-77.514;2023-06-10T06:51:02;98852.19;;;10.91;57.68
80693;BME280;70055;39.436;-77.514;2023-06-10T06:53:30;98852.31;;;10.66;58.76
80693;BME280;70055;39.436;-77.514;2023-06-10T06:55:58;98852.75;;;10.95;58.95
80693;BME280;70055;39.436;-77.514;2023-06-10T06:58:26;98851.27;;;10.61;59.09
80693;BME280;70055;39.436;-77.514;2023-06-10T07:00:55;98847.05;;;10.25;57.93
80693;BME280;70055;39.436;-77.514;2023-06-10T07:03:23;98853.47;;;9.58;58.56
80693;BME280;70055;39.436;-77.514;2023-06-10T07:05:51;98859.83;;;10.05;57.47
80693;BME280;70055;39.436;-77.514;2023-06-10T07:08:19;98862.36;;;10.56;55.69
80693;BME280;70055;39.436;-77.514;2023-06-10T07:10:47;98858.55;;;11.43;54.57
80693;BME280;70055;39.436;-77.514;2023-06-10T07:13:15;98861.33;;;10.14;57.19
80693;BME280;70055;39.436;-77.514;2023-06-10T07:15:43;98857.09;;;10.71;57.15
80693;BME280;70055;39.436;-77.514;2023-06-10T07:18:11;98862.32;;;10.17;57.80
80693;BME280;70055;39.436;-77.514;2023-06-10T07:20:38;98857.87;;;10.28;56.97
80693;BME280;70055;39.436;-77.514;2023-06-10T07:23:06;98858.08;;;10.45;57.58
80693;BME280;70055;39.436;-77.514;2023-06-10T07:25:34;98857.40;;;10.05;58.57
80693;BME280;70055;39.436;-77.514;2023-06-10T07:28:02;98858.19;;;10.27;58.07
80693;BME280;70055;39.436;-77.514;2023-06-10T07:30:30;98861.85;;;10.12;60.56
80693;BME280;70055;39.436;-77.514;2023-06-10T07:32:58;98864.77;;;10.15;60.29
80693;BME280;70055;39.436;-77.514;2023-06-10T07:35:27;98866.57;;;10.21;60.63
80693;BME280;70055;39.436;-77.514;2023-06-10T07:37:54;98864.62;;;9.48;61.98
80693;BME280;70055;39.436;-77.514;2023-06-10T07:40:23;98861.30;;;9.74;61.54
80693;BME280;70055;39.436;-77.514;2023-06-10T07:42:51;98859.31;;;10.21;59.03
80693;BME280;70055;39.436;-77.514;2023-06-10T07:45:19;98852.09;;;10.40;58.11
80693;BME280;70055;39.436;-77.514;2023-06-10T07:47:47;98851.90;;;10.39;59.63
80693;BME280;70055;39.436;-77.514;2023-06-10T07:50:15;98847.87;;;10.25;59.01
80693;BME280;70055;39.436;-77.514;2023-06-10T07:52:44;98848.68;;;10.38;58.96
80693;BME280;70055;39.436;-77.514;2023-06-10T07:55:12;98854.97;;;9.76;60.28
80693;BME280;70055;39.436;-77.514;2023-06-10T07:57:40;98854.16;;;9.57;58.87
80693;BME280;70055;39.436;-77.514;2023-06-10T08:00:08;98848.37;;;10.58;56.31
80693;BME280;70055;39.436;-77.514;2023-06-10T08:02:36;98844.98;;;10.56;56.60
80693;BME280;70055;39.436;-77.514;2023-06-10T08:05:05;98851.15;;;9.94;57.85
80693;BME280;70055;39.436;-77.514;2023-06-10T08:07:33;98849.84;;;10.21;59.63
80693;BME280;70055;39.436;-77.514;2023-06-10T08:10:02;98860.78;;;9.26;61.63
80693;BME280;70055;39.436;-77.514;2023-06-10T08:12:30;98860.70;;;9.48;60.89
80693;BME280;70055;39.436;-77.514;2023-06-10T08:14:58;98856.18;;;9.96;59.69
80693;BME280;70055;39.436;-77.514;2023-06-10T08:17:26;98856.50;;;10.28;59.06
80693;BME280;70055;39.436;-77.514;2023-06-10T08:19:55;98848.84;;;11.38;56.13
80693;BME280;70055;39.436;-77.514;2023-06-10T08:22:22;98852.06;;;10.47;57.85
80693;BME280;70055;39.436;-77.514;2023-06-10T08:24:50;98853.62;;;10.21;58.65
80693;BME280;70055;39.436;-77.514;2023-06-10T08:27:19;98852.46;;;11.08;57.11
80693;BME280;70055;39.436;-77.514;2023-06-10T08:29:47;98858.36;;;9.82;61.75
80693;BME280;70055;39.436;-77.514;2023-06-10T08:32:14;98859.81;;;10.75;58.56
80693;BME280;70055;39.436;-77.514;2023-06-10T08:34:42;98865.19;;;10.35;58.45
80693;BME280;70055;39.436;-77.514;2023-06-10T08:37:10;98867.57;;;10.40;58.04
80693;BME280;70055;39.436;-77.514;2023-06-10T08:39:38;98870.29;;;9.94;59.09
80693;BME280;70055;39.436;-77.514;2023-06-10T08:42:14;98871.71;;;10.50;58.79
80693;BME280;70055;39.436;-77.514;2023-06-10T08:44:46;98870.83;;;10.32;57.89
80693;BME280;70055;39.436;-77.514;2023-06-10T08:47:17;98871.33;;;9.70;59.06
80693;BME280;70055;39.436;-77.514;2023-06-10T08:49:46;98877.07;;;9.07;61.43
80693;BME280;70055;39.436;-77.514;2023-06-10T08:52:16;98880.52;;;9.18;62.16
80693;BME280;70055;39.436;-77.514;2023-06-10T08:54:52;98877.28;;;9.87;60.17
80693;BME280;70055;39.436;-77.514;2023-06-10T08:57:20;98877.97;;;10.79;58.99
80693;BME280;70055;39.436;-77.514;2023-06-10T08:59:48;98882.52;;;10.86;57.62
80693;BME280;70055;39.436;-77.514;2023-06-10T09:02:17;98892.91;;;9.65;59.42
80693;BME280;70055;39.436;-77.514;2023-06-10T09:04:46;98888.42;;;10.51;57.07
80693;BME280;70055;39.436;-77.514;2023-06-10T09:07:16;98894.35;;;10.20;57.09
80693;BME280;70055;39.436;-77.514;2023-06-10T09:09:44;98900.99;;;10.69;57.56
80693;BME280;70055;39.436;-77.514;2023-06-10T09:12:13;98901.55;;;10.18;57.71
80693;BME280;70055;39.436;-77.514;2023-06-10T09:14:42;98910.91;;;9.29;60.66
80693;BME280;70055;39.436;-77.514;2023-06-10T09:17:10;98907.41;;;10.07;59.37
80693;BME280;70055;39.436;-77.514;2023-06-10T09:19:38;98914.65;;;9.89;60.24
80693;BME280;70055;39.436;-77.514;2023-06-10T09:22:08;98910.33;;;9.88;58.76
80693;BME280;70055;39.436;-77.514;2023-06-10T09:24:35;98909.77;;;10.66;58.69
80693;BME280;70055;39.436;-77.514;2023-06-10T09:27:04;98912.66;;;10.08;58.41
80693;BME280;70055;39.436;-77.514;2023-06-10T09:29:43;98911.04;;;10.92;57.44
80693;BME280;70055;39.436;-77.514;2023-06-10T09:32:13;98913.92;;;11.28;56.99
80693;BME280;70055;39.436;-77.514;2023-06-10T09:34:41;98918.02;;;11.12;57.36
80693;BME280;70055;39.436;-77.514;2023-06-10T09:37:10;98924.42;;;10.79;57.61
80693;BME280;70055;39.436;-77.514;2023-06-10T09:39:39;98924.63;;;11.08;56.68
80693;BME280;70055;39.436;-77.514;2023-06-10T09:42:16;98929.90;;;10.67;56.98
80693;BME280;70055;39.436;-77.514;2023-06-10T09:44:50;98933.63;;;10.62;57.24
80693;BME280;70055;39.436;-77.514;2023-06-10T09:47:20;98930.52;;;11.07;56.49
80693;BME280;70055;39.436;-77.514;2023-06-10T09:49:49;98935.17;;;10.29;56.85
80693;BME280;70055;39.436;-77.514;2023-06-10T09:52:22;98933.37;;;12.37;54.49
80693;BME280;70055;39.436;-77.514;2023-06-10T09:54:50;98936.02;;;11.13;56.54
80693;BME280;70055;39.436;-77.514;2023-06-10T09:57:19;98943.44;;;10.81;57.05
80693;BME280;70055;39.436;-77.514;2023-06-10T09:59:47;98946.01;;;10.97;56.41
80693;BME280;70055;39.436;-77.514;2023-06-10T10:02:16;98947.75;;;11.20;56.80
80693;BME280;70055;39.436;-77.514;2023-06-10T10:04:44;98951.58;;;10.86;57.27
80693;BME280;70055;39.436;-77.514;2023-06-10T10:07:12;98948.72;;;11.60;56.53
80693;BME280;70055;39.436;-77.514;2023-06-10T10:09:41;98946.80;;;11.16;56.24
80693;BME280;70055;39.436;-77.514;2023-06-10T10:12:11;98947.00;;;11.60;56.63
80693;BME280;70055;39.436;-77.514;2023-06-10T10:14:46;98945.58;;;11.69;56.03
80693;BME280;70055;39.436;-77.514;2023-06-10T10:17:15;98947.73;;;10.79;56.69
80693;BME280;70055;39.436;-77.514;2023-06-10T10:19:48;98948.50;;;11.46;56.33
80693;BME280;70055;39.436;-77.514;2023-06-10T10:22:22;98951.88;;;11.58;56.29
80693;BME280;70055;39.436;-77.514;2023-06-10T10:24:55;98951.75;;;11.15;56.36
80693;BME280;70055;39.436;-77.514;2023-06-10T10:27:27;98955.03;;;11.41;56.43
80693;BME280;70055;39.436;-77.514;2023-06-10T10:29:59;98955.58;;;11.69;55.78
80693;BME280;70055;39.436;-77.514;2023-06-10T10:32:32;98959.51;;;11.87;57.19
80693;BME280;70055;39.436;-77.514;2023-06-10T10:35:09;98958.15;;;11.93;56.12
80693;BME280;70055;39.436;-77.514;2023-06-10T10:37:39;98959.23;;;11.92;56.24
80693;BME280;70055;39.436;-77.514;2023-06-10T10:40:09;98955.86;;;12.83;56.05
80693;BME280;70055;39.436;-77.514;2023-06-10T10:42:39;98959.60;;;12.68;55.49
80693;BME280;70055;39.436;-77.514;2023-06-10T10:45:09;98959.38;;;13.22;56.10
80693;BME280;70055;39.436;-77.514;2023-06-10T10:47:38;98960.03;;;12.76;56.39
80693;BME280;70055;39.436;-77.514;2023-06-10T10:50:15;98961.79;;;13.24;55.19
80693;BME280;70055;39.436;-77.514;2023-06-10T10:52:56;98964.65;;;13.05;56.07
80693;BME280;70055;39.436;-77.514;2023-06-10T10:55:26;98969.21;;;13.37;56.82
80693;BME280;70055;39.436;-77.514;2023-06-10T10:57:56;98978.05;;;13.05;54.57
80693;BME280;70055;39.436;-77.514;2023-06-10T11:00:28;98982.67;;;13.85;55.26
80693;BME280;70055;39.436;-77.514;2023-06-10T11:02:59;98985.46;;;13.93;54.13
80693;BME280;70055;39.436;-77.514;2023-06-10T11:05:36;98987.95;;;14.15;54.30
80693;BME280;70055;39.436;-77.514;2023-06-10T11:08:05;98981.77;;;13.36;56.62
80693;BME280;70055;39.436;-77.514;2023-06-10T11:10:35;98982.85;;;12.92;56.95
80693;BME280;70055;39.436;-77.514;2023-06-10T11:13:07;98982.09;;;13.27;58.92
80693;BME280;70055;39.436;-77.514;2023-06-10T11:15:40;98983.37;;;14.23;56.45
80693;BME280;70055;39.436;-77.514;2023-06-10T11:18:13;98983.09;;;15.02;54.65
80693;BME280;70055;39.436;-77.514;2023-06-10T11:20:51;98983.75;;;15.03;50.68
80693;BME280;70055;39.436;-77.514;2023-06-10T11:23:39;98981.01;;;15.43;52.67
80693;BME280;70055;39.436;-77.514;2023-06-10T11:26:44;98980.40;;;16.18;52.01
80693;BME280;70055;39.436;-77.514;2023-06-10T11:29:15;98979.48;;;15.86;52.87
80693;BME280;70055;39.436;-77.514;2023-06-10T11:31:45;98985.47;;;15.24;53.39
80693;BME280;70055;39.436;-77.514;2023-06-10T11:34:14;98977.86;;;15.24;49.47
80693;BME280;70055;39.436;-77.514;2023-06-10T11:36:43;98986.20;;;13.92;53.49
80693;BME280;70055;39.436;-77.514;2023-06-10T11:39:11;98982.45;;;16.28;48.99
80693;BME280;70055;39.436;-77.514;2023-06-10T11:41:40;98984.33;;;14.78;53.26
80693;BME280;70055;39.436;-77.514;2023-06-10T11:44:09;98977.70;;;17.21;48.21
80693;BME280;70055;39.436;-77.514;2023-06-10T11:46:38;98975.04;;;17.42;48.39
80693;BME280;70055;39.436;-77.514;2023-06-10T11:49:06;98973.53;;;17.52;46.00
80693;BME280;70055;39.436;-77.514;2023-06-10T11:51:35;98973.55;;;17.62;45.84
80693;BME280;70055;39.436;-77.514;2023-06-10T11:54:04;98980.88;;;13.50;53.94
80693;BME280;70055;39.436;-77.514;2023-06-10T11:56:32;98971.19;;;15.60;48.39
80693;BME280;70055;39.436;-77.514;2023-06-10T11:59:01;98971.12;;;17.02;46.63
80693;BME280;70055;39.436;-77.514;2023-06-10T12:01:29;98978.03;;;16.30;45.38
80693;BME280;70055;39.436;-77.514;2023-06-10T12:04:01;98978.57;;;16.29;49.53
80693;BME280;70055;39.436;-77.514;2023-06-10T12:06:43;98980.84;;;16.77;48.22
80693;BME280;70055;39.436;-77.514;2023-06-10T12:09:16;98981.90;;;17.78;45.80
80693;BME280;70055;39.436;-77.514;2023-06-10T12:11:45;98986.37;;;18.33;44.08
80693;BME280;70055;39.436;-77.514;2023-06-10T12:14:15;98987.76;;;18.36;42.87
80693;BME280;70055;39.436;-77.514;2023-06-10T12:16:49;98987.63;;;19.52;38.47
80693;BME280;70055;39.436;-77.514;2023-06-10T12:19:17;98983.99;;;20.07;38.75
80693;BME280;70055;39.436;-77.514;2023-06-10T12:21:45;98982.46;;;20.19;39.40
80693;BME280;70055;39.436;-77.514;2023-06-10T12:24:14;98985.15;;;20.34;36.81
80693;BME280;70055;39.436;-77.514;2023-06-10T12:26:43;98987.37;;;20.27;35.08
80693;BME280;70055;39.436;-77.514;2023-06-10T12:29:19;98989.61;;;20.40;37.52
80693;BME280;70055;39.436;-77.514;2023-06-10T12:31:57;98993.00;;;20.33;37.82
80693;BME280;70055;39.436;-77.514;2023-06-10T12:34:31;98992.35;;;21.27;33.88
80693;BME280;70055;39.436;-77.514;2023-06-10T12:36:59;98990.28;;;21.66;32.39
80693;BME280;70055;39.436;-77.514;2023-06-10T12:39:27;98988.61;;;21.93;31.85
80693;BME280;70055;39.436;-77.514;2023-06-10T12:41:55;98990.39;;;20.76;35.27
80693;BME280;70055;39.436;-77.514;2023-06-10T12:44:33;98996.52;;;19.98;39.91
80693;BME280;70055;39.436;-77.514;2023-06-10T12:47:07;98996.45;;;21.33;32.05
80693;BME280;70055;39.436;-77.514;2023-06-10T12:49:35;98997.39;;;21.23;33.47
80693;BME280;70055;39.436;-77.514;2023-06-10T12:52:03;98999.50;;;22.25;33.37